createdAt,value
2022-09-14T00:01:26.870Z,19.50
2022-09-14T00:03:56.813Z,19.49
2022-09-14T00:06:26.368Z,19.43
2022-09-14T00:08:55.543Z,19.41
2022-09-14T00:11:25.093Z,19.27
2022-09-14T00:13:54.039Z,19.19
2022-09-14T00:16:24.159Z,19.22
2022-09-14T00:18:53.347Z,19.16
2022-09-14T00:21:21.441Z,19.24
2022-09-14T00:23:50.866Z,19.18
2022-09-14T00:26:23.829Z,19.04
2022-09-14T00:28:53.386Z,19.11
2022-09-14T00:31:22.421Z,19.13
2022-09-14T00:33:51.611Z,19.08
2022-09-14T00:36:22.001Z,19.08
2022-09-14T00:38:51.581Z,19.06
2022-09-14T00:41:28.974Z,19.08
2022-09-14T00:43:59.429Z,19.12
2022-09-14T00:46:29.339Z,19.10
2022-09-14T00:49:00.936Z,19.13
2022-09-14T00:51:30.985Z,19.19
2022-09-14T00:54:02.696Z,19.19
2022-09-14T00:56:30.898Z,19.14
2022-09-14T00:59:00.706Z,19.03
2022-09-14T01:01:28.616Z,19.03
2022-09-14T01:03:56.279Z,19.02
2022-09-14T01:06:35.957Z,19.01
2022-09-14T01:09:19.089Z,19.02
2022-09-14T01:12:06.798Z,19.02
2022-09-14T01:14:43.634Z,18.93
2022-09-14T01:17:17.602Z,18.95
2022-09-14T01:20:10.949Z,18.79
2022-09-14T01:22:47.667Z,18.78
2022-09-14T01:25:38.838Z,18.82
2022-09-14T01:28:13.558Z,18.75
2022-09-14T01:30:43.712Z,18.65
2022-09-14T01:33:18.923Z,18.65
2022-09-14T01:35:53.329Z,18.68
2022-09-14T01:38:24.428Z,18.75
2022-09-14T01:40:52.473Z,18.83
2022-09-14T01:43:26.226Z,18.75
2022-09-14T01:45:57.077Z,18.78
2022-09-14T01:48:32.731Z,18.77
2022-09-14T01:51:04.339Z,18.70
2022-09-14T01:53:37.699Z,18.76
2022-09-14T01:56:11.974Z,18.85
2022-09-14T01:58:45.908Z,18.91
2022-09-14T02:01:19.177Z,18.88
2022-09-14T02:03:50.933Z,18.84
2022-09-14T02:06:24.893Z,18.68
2022-09-14T02:08:53.248Z,18.67
2022-09-14T02:11:21.087Z,18.65
2022-09-14T02:13:50.160Z,18.64
2022-09-14T02:16:18.019Z,18.66
2022-09-14T02:18:45.873Z,18.69
2022-09-14T02:21:16.959Z,18.65
2022-09-14T02:23:44.802Z,18.60
2022-09-14T02:26:12.814Z,18.56
2022-09-14T02:28:40.495Z,18.57
2022-09-14T02:31:18.676Z,18.55
2022-09-14T02:33:55.745Z,18.56
2022-09-14T02:36:29.675Z,18.48
2022-09-14T02:39:03.402Z,18.49
2022-09-14T02:41:42.040Z,18.61
2022-09-14T02:44:17.318Z,18.64
2022-09-14T02:46:51.624Z,18.56
2022-09-14T02:49:24.015Z,18.56
2022-09-14T02:51:58.412Z,18.60
2022-09-14T02:54:31.829Z,18.58
2022-09-14T02:57:01.667Z,18.57
2022-09-14T02:59:29.816Z,18.56
2022-09-14T03:02:00.858Z,18.56
2022-09-14T03:04:29.036Z,18.56
2022-09-14T03:06:56.906Z,18.56
2022-09-14T03:09:24.554Z,18.59
2022-09-14T03:11:52.154Z,18.61
2022-09-14T03:14:19.735Z,18.64
2022-09-14T03:16:47.361Z,18.60
2022-09-14T03:19:16.558Z,18.61
2022-09-14T03:21:44.174Z,18.53
2022-09-14T03:24:12.137Z,18.37
2022-09-14T03:26:40.087Z,18.25
2022-09-14T03:29:07.926Z,18.27
2022-09-14T03:31:35.767Z,18.25
2022-09-14T03:34:03.917Z,18.22
2022-09-14T03:36:33.257Z,18.14
2022-09-14T03:39:02.703Z,18.14
2022-09-14T03:41:30.895Z,18.09
2022-09-14T03:43:58.533Z,17.93
2022-09-14T03:46:26.959Z,17.99
2022-09-14T03:48:55.838Z,17.98
2022-09-14T03:51:23.811Z,18.06
2022-09-14T03:53:53.104Z,18.04
2022-09-14T03:56:23.114Z,18.03
2022-09-14T03:58:51.346Z,18.03
2022-09-14T04:01:21.387Z,18.06
2022-09-14T04:03:50.254Z,18.05
2022-09-14T04:06:19.176Z,18.07
2022-09-14T04:08:48.355Z,18.00
2022-09-14T04:11:19.982Z,17.99
2022-09-14T04:13:48.531Z,18.00
2022-09-14T04:16:17.893Z,17.97
2022-09-14T04:18:45.789Z,17.94
2022-09-14T04:21:15.925Z,17.95
2022-09-14T04:24:03.451Z,17.90
2022-09-14T04:26:33.580Z,17.79
2022-09-14T04:29:01.218Z,17.61
2022-09-14T04:31:28.967Z,17.56
2022-09-14T04:33:57.635Z,17.57
2022-09-14T04:36:29.377Z,17.61
2022-09-14T04:38:58.609Z,17.69
2022-09-14T04:41:27.524Z,17.63
2022-09-14T04:43:57.719Z,17.62
2022-09-14T04:46:27.599Z,17.54
2022-09-14T04:48:55.492Z,17.51
2022-09-14T04:51:25.039Z,17.51
2022-09-14T04:53:55.069Z,17.48
2022-09-14T04:56:24.450Z,17.55
2022-09-14T04:58:54.012Z,17.59
2022-09-14T05:01:24.904Z,17.62
2022-09-14T05:03:53.231Z,17.55
2022-09-14T05:06:23.104Z,17.60
2022-09-14T05:08:52.079Z,17.55
2022-09-14T05:11:21.456Z,17.46
2022-09-14T05:13:50.410Z,17.44
2022-09-14T05:16:20.139Z,17.45
2022-09-14T05:18:50.258Z,17.56
2022-09-14T05:21:20.471Z,17.58
2022-09-14T05:23:49.359Z,17.55
2022-09-14T05:26:17.298Z,17.56
2022-09-14T05:28:44.912Z,17.57
2022-09-14T05:31:13.096Z,17.58
2022-09-14T05:33:40.948Z,17.56
2022-09-14T05:36:10.591Z,17.46
2022-09-14T05:38:40.174Z,17.24
2022-09-14T05:41:09.545Z,17.18
2022-09-14T05:43:37.216Z,17.14
2022-09-14T05:46:06.604Z,17.06
2022-09-14T05:48:35.015Z,16.92
2022-09-14T05:51:04.290Z,16.76
2022-09-14T05:53:33.333Z,16.68
2022-09-14T05:56:02.197Z,16.56
2022-09-14T05:58:30.154Z,16.60
2022-09-14T06:00:58.023Z,16.53
2022-09-14T06:03:26.104Z,16.51
2022-09-14T06:05:54.876Z,16.60
2022-09-14T06:08:23.429Z,16.68
2022-09-14T06:10:52.472Z,16.74
2022-09-14T06:13:20.118Z,16.76
2022-09-14T06:15:47.749Z,16.76
2022-09-14T06:18:15.434Z,16.77
2022-09-14T06:20:51.523Z,16.82
2022-09-14T06:23:19.562Z,16.82
2022-09-14T06:25:47.147Z,16.75
2022-09-14T06:28:16.163Z,16.75
2022-09-14T06:30:45.032Z,16.78
2022-09-14T06:33:12.697Z,16.80
2022-09-14T06:35:42.017Z,16.76
2022-09-14T06:38:09.987Z,16.75
2022-09-14T06:40:37.632Z,16.75
2022-09-14T06:43:05.236Z,16.80
2022-09-14T06:45:34.255Z,16.84
2022-09-14T06:48:02.102Z,16.87
2022-09-14T06:50:29.800Z,16.85
2022-09-14T06:52:57.435Z,16.67
2022-09-14T06:55:25.085Z,16.65
2022-09-14T06:57:52.756Z,16.63
2022-09-14T07:00:20.539Z,16.59
2022-09-14T07:02:52.463Z,16.45
2022-09-14T07:05:23.128Z,16.38
2022-09-14T07:07:53.360Z,16.41
2022-09-14T07:10:21.030Z,16.54
2022-09-14T07:12:48.718Z,16.59
2022-09-14T07:15:16.446Z,16.66
2022-09-14T07:17:47.147Z,16.56
2022-09-14T07:20:16.417Z,16.63
2022-09-14T07:22:45.099Z,16.66
2022-09-14T07:25:13.013Z,16.64
2022-09-14T07:27:40.690Z,16.66
2022-09-14T07:30:09.647Z,16.72
2022-09-14T07:32:37.281Z,16.74
2022-09-14T07:35:05.298Z,16.71
2022-09-14T07:37:34.368Z,16.76
2022-09-14T07:40:02.349Z,16.78
2022-09-14T07:42:30.049Z,16.80
2022-09-14T07:44:57.753Z,16.76
2022-09-14T07:47:25.577Z,16.72
2022-09-14T07:49:53.198Z,16.75
2022-09-14T07:52:23.225Z,16.78
2022-09-14T07:54:52.601Z,16.74
2022-09-14T07:57:33.964Z,16.75
2022-09-14T08:00:10.014Z,16.78
2022-09-14T08:02:37.729Z,16.82
2022-09-14T08:05:05.943Z,16.80
2022-09-14T08:07:33.805Z,16.77
2022-09-14T08:10:03.136Z,16.82
2022-09-14T08:12:31.116Z,16.81
2022-09-14T08:14:58.768Z,16.82
2022-09-14T08:17:26.523Z,16.83
2022-09-14T08:19:55.637Z,16.84
2022-09-14T08:22:23.307Z,16.85
2022-09-14T08:24:51.006Z,16.84
2022-09-14T08:27:20.034Z,16.78
2022-09-14T08:29:47.638Z,16.68
2022-09-14T08:32:15.267Z,16.61
2022-09-14T08:34:42.903Z,16.67
2022-09-14T08:37:10.971Z,16.73
2022-09-14T08:39:38.625Z,16.80
2022-09-14T08:42:07.032Z,16.80
2022-09-14T08:44:41.639Z,16.85
2022-09-14T08:47:13.654Z,16.88
2022-09-14T08:49:47.608Z,16.89
2022-09-14T08:52:23.270Z,16.92
2022-09-14T08:54:55.035Z,16.87
2022-09-14T08:57:29.606Z,16.83
2022-09-14T09:00:08.015Z,16.88
2022-09-14T09:02:51.010Z,16.91
2022-09-14T09:05:31.362Z,16.93
2022-09-14T09:08:06.193Z,16.98
2022-09-14T09:10:36.360Z,17.01
2022-09-14T09:13:06.678Z,17.06
2022-09-14T09:15:38.174Z,17.07
2022-09-14T09:18:09.793Z,17.08
2022-09-14T09:20:41.526Z,17.07
2022-09-14T09:23:14.269Z,17.04
2022-09-14T09:26:04.706Z,17.10
2022-09-14T09:28:33.645Z,17.14
2022-09-14T09:31:10.185Z,17.16
2022-09-14T09:33:40.482Z,17.18
2022-09-14T09:36:13.415Z,17.22
2022-09-14T09:38:41.444Z,17.23
2022-09-14T09:41:15.107Z,17.23
2022-09-14T09:43:59.879Z,17.24
2022-09-14T09:46:31.879Z,17.27
2022-09-14T09:49:00.370Z,17.15
2022-09-14T09:51:31.454Z,17.10
2022-09-14T09:54:08.627Z,17.02
2022-09-14T09:56:39.458Z,16.92
2022-09-14T09:59:23.345Z,16.91
2022-09-14T10:01:55.549Z,16.95
2022-09-14T10:04:27.870Z,16.84
2022-09-14T10:06:57.686Z,16.83
2022-09-14T10:09:28.161Z,16.88
2022-09-14T10:12:01.478Z,16.89
2022-09-14T10:14:32.233Z,16.86
2022-09-14T10:17:16.646Z,16.90
2022-09-14T10:19:48.761Z,16.85
2022-09-14T10:22:26.761Z,16.93
2022-09-14T10:24:57.507Z,17.07
2022-09-14T10:27:39.630Z,17.20
2022-09-14T10:30:13.247Z,17.26
2022-09-14T10:32:45.817Z,17.35
2022-09-14T10:35:15.309Z,17.38
2022-09-14T10:37:56.442Z,17.43
2022-09-14T10:40:31.721Z,17.42
2022-09-14T10:43:10.131Z,17.43
2022-09-14T10:45:42.331Z,17.42
2022-09-14T10:48:43.681Z,17.39
2022-09-14T10:51:36.120Z,17.37
2022-09-14T10:54:13.865Z,17.33
2022-09-14T10:56:57.038Z,17.38
2022-09-14T10:59:32.758Z,17.29
2022-09-14T11:02:37.892Z,17.16
2022-09-14T11:05:13.107Z,17.20
2022-09-14T11:07:53.444Z,17.25
2022-09-14T11:10:29.332Z,17.27
2022-09-14T11:13:19.408Z,17.26
2022-09-14T11:15:57.959Z,17.15
2022-09-14T11:18:34.564Z,16.99
2022-09-14T11:21:10.175Z,17.08
2022-09-14T11:23:48.920Z,17.07
2022-09-14T11:26:23.743Z,17.15
2022-09-14T11:28:55.078Z,17.02
2022-09-14T11:31:27.715Z,17.03
2022-09-14T11:34:00.077Z,17.08
2022-09-14T11:36:34.051Z,17.15
2022-09-14T11:39:07.210Z,17.22
2022-09-14T11:41:40.346Z,17.25
2022-09-14T11:44:14.411Z,17.27
2022-09-14T11:46:45.153Z,17.25
2022-09-14T11:49:19.732Z,17.30
2022-09-14T11:51:53.525Z,17.36
2022-09-14T11:54:23.542Z,17.33
2022-09-14T11:56:53.702Z,17.34
2022-09-14T11:59:48.361Z,17.36
2022-09-14T12:02:52.454Z,17.25
2022-09-14T12:05:33.163Z,17.24
2022-09-14T12:08:21.265Z,17.28
2022-09-14T12:11:28.593Z,17.28
2022-09-14T12:14:16.229Z,17.32
2022-09-14T12:17:39.909Z,17.34
2022-09-14T12:20:45.085Z,17.31
2022-09-14T12:23:24.648Z,17.30
2022-09-14T12:26:03.637Z,17.34
2022-09-14T12:28:43.463Z,17.32
2022-09-14T12:31:15.927Z,17.29
2022-09-14T12:34:15.857Z,17.25
2022-09-14T12:37:20.210Z,17.21
2022-09-14T12:40:27.843Z,17.24
2022-09-14T12:42:56.851Z,17.23
2022-09-14T12:45:51.249Z,17.25
2022-09-14T12:48:58.594Z,17.28
2022-09-14T12:51:37.691Z,17.34
2022-09-14T12:54:18.265Z,17.34
2022-09-14T12:56:56.372Z,17.35
2022-09-14T12:59:32.472Z,17.40
2022-09-14T13:02:14.836Z,17.40
2022-09-14T13:04:45.555Z,17.32
2022-09-14T13:07:15.912Z,17.31
2022-09-14T13:09:49.110Z,17.33
2022-09-14T13:12:24.842Z,17.28
2022-09-14T13:14:56.538Z,17.24
2022-09-14T13:17:24.199Z,17.23
2022-09-14T13:19:56.467Z,17.18
2022-09-14T13:22:26.009Z,17.15
2022-09-14T13:24:56.228Z,17.19
2022-09-14T13:27:27.021Z,17.20
2022-09-14T13:30:05.189Z,17.20
2022-09-14T13:32:35.835Z,17.25
2022-09-14T13:35:05.982Z,17.17
2022-09-14T13:37:33.720Z,17.18
2022-09-14T13:40:01.547Z,17.19
2022-09-14T13:42:29.395Z,17.19
2022-09-14T13:44:57.236Z,17.21
2022-09-14T13:47:26.934Z,17.21
2022-09-14T13:49:55.870Z,17.16
2022-09-14T13:52:57.463Z,17.20
2022-09-14T13:55:27.646Z,17.17
2022-09-14T13:58:17.245Z,17.21
2022-09-14T14:00:58.002Z,17.09
2022-09-14T14:03:30.749Z,17.13
2022-09-14T14:05:59.209Z,17.12
2022-09-14T14:08:34.118Z,17.16
2022-09-14T14:11:05.154Z,17.30
2022-09-14T14:13:35.456Z,17.40
2022-09-14T14:16:18.168Z,17.45
2022-09-14T14:18:53.262Z,17.45
2022-09-14T14:21:30.050Z,17.43
2022-09-14T14:24:28.418Z,17.28
2022-09-14T14:26:57.879Z,17.16
2022-09-14T14:29:26.808Z,17.06
2022-09-14T14:31:56.823Z,17.06
2022-09-14T14:34:28.794Z,17.13
2022-09-14T14:36:57.589Z,17.16
2022-09-14T14:39:26.482Z,17.27
2022-09-14T14:41:54.527Z,17.32
2022-09-14T14:44:24.212Z,17.39
2022-09-14T14:46:52.251Z,17.29
2022-09-14T14:49:20.889Z,17.28
2022-09-14T14:51:49.955Z,17.32
2022-09-14T14:54:18.725Z,17.18
2022-09-14T14:56:47.843Z,17.21
2022-09-14T14:59:28.518Z,17.22
2022-09-14T15:01:57.100Z,17.21
2022-09-14T15:04:25.316Z,17.37
2022-09-14T15:06:54.496Z,17.42
2022-09-14T15:09:25.432Z,17.47
2022-09-14T15:11:54.626Z,17.35
2022-09-14T15:14:26.969Z,17.35
2022-09-14T15:16:59.740Z,17.28
2022-09-14T15:19:28.105Z,17.30
2022-09-14T15:22:00.963Z,17.27
2022-09-14T15:24:29.941Z,17.07
2022-09-14T15:26:57.827Z,17.06
2022-09-14T15:29:25.662Z,17.14
2022-09-14T15:31:53.409Z,17.19
2022-09-14T15:34:21.300Z,17.25
2022-09-14T15:36:51.239Z,17.30
2022-09-14T15:39:21.954Z,17.24
2022-09-14T15:41:49.993Z,17.08
2022-09-14T15:44:18.014Z,16.98
2022-09-14T15:46:46.860Z,16.85
2022-09-14T15:49:17.774Z,16.95
2022-09-14T15:51:47.750Z,16.93
2022-09-14T15:54:16.002Z,16.93
2022-09-14T15:56:49.676Z,16.98
2022-09-14T15:59:21.988Z,16.97
2022-09-14T16:01:49.977Z,16.99
2022-09-14T16:04:18.040Z,17.02
2022-09-14T16:06:46.130Z,17.02
2022-09-14T16:09:15.917Z,16.98
2022-09-14T16:11:45.318Z,17.03
2022-09-14T16:14:12.999Z,17.02
2022-09-14T16:16:41.409Z,16.99
2022-09-14T16:19:11.501Z,16.98
2022-09-14T16:21:39.782Z,16.98
2022-09-14T16:24:11.301Z,16.97
2022-09-14T16:26:39.705Z,16.89
2022-09-14T16:29:11.616Z,16.85
2022-09-14T16:31:41.506Z,16.89
2022-09-14T16:34:12.541Z,16.91
2022-09-14T16:36:41.395Z,16.86
2022-09-14T16:39:12.146Z,16.90
2022-09-14T16:41:41.746Z,16.88
2022-09-14T16:44:13.924Z,16.90
2022-09-14T16:46:41.722Z,16.88
2022-09-14T16:49:09.529Z,16.91
2022-09-14T16:51:37.756Z,16.89
2022-09-14T16:54:05.762Z,16.87
2022-09-14T16:56:35.595Z,16.85
2022-09-14T16:59:04.356Z,16.83
2022-09-14T17:01:35.138Z,16.76
2022-09-14T17:04:08.186Z,16.74
2022-09-14T17:06:37.775Z,16.76
2022-09-14T17:09:08.928Z,16.77
2022-09-14T17:11:38.004Z,16.75
2022-09-14T17:14:06.685Z,16.71
2022-09-14T17:16:35.993Z,16.69
2022-09-14T17:19:05.660Z,16.69
2022-09-14T17:21:35.281Z,16.69
2022-09-14T17:24:04.373Z,16.64
2022-09-14T17:26:32.889Z,16.66
2022-09-14T17:29:01.933Z,16.63
2022-09-14T17:31:31.909Z,16.63
2022-09-14T17:34:02.618Z,16.58
2022-09-14T17:36:31.098Z,16.52
2022-09-14T17:39:01.869Z,16.50
2022-09-14T17:41:31.641Z,16.50
2022-09-14T17:44:02.147Z,16.53
2022-09-14T17:46:30.662Z,16.53
2022-09-14T17:49:00.452Z,16.50
2022-09-14T17:51:30.803Z,16.53
2022-09-14T17:53:59.833Z,16.55
2022-09-14T17:56:29.182Z,16.53
2022-09-14T17:59:02.969Z,16.50
2022-09-14T18:01:31.939Z,16.47
2022-09-14T18:04:02.930Z,16.43
2022-09-14T18:06:35.614Z,16.44
2022-09-14T18:09:05.931Z,16.43
2022-09-14T18:11:34.466Z,16.39
2022-09-14T18:14:03.643Z,16.36
2022-09-14T18:16:31.807Z,16.30
2022-09-14T18:18:59.890Z,16.22
2022-09-14T18:21:28.138Z,16.22
2022-09-14T18:23:57.280Z,16.21
2022-09-14T18:26:26.241Z,16.18
2022-09-14T18:28:55.977Z,16.18
2022-09-14T18:31:24.325Z,16.18
2022-09-14T18:33:53.676Z,16.16
2022-09-14T18:36:22.250Z,16.15
2022-09-14T18:38:51.476Z,16.11
2022-09-14T18:41:21.604Z,16.09
2022-09-14T18:43:51.377Z,16.09
2022-09-14T18:46:22.398Z,16.12
2022-09-14T18:48:52.886Z,16.14
2022-09-14T18:51:20.783Z,16.14
2022-09-14T18:53:48.670Z,16.12
2022-09-14T18:56:17.953Z,16.09
2022-09-14T18:58:48.810Z,16.06
2022-09-14T19:01:16.585Z,16.05
2022-09-14T19:03:45.076Z,16.06
2022-09-14T19:06:15.264Z,16.06
2022-09-14T19:08:43.534Z,16.03
2022-09-14T19:11:13.106Z,15.98
2022-09-14T19:13:41.302Z,15.95
2022-09-14T19:16:12.387Z,15.94
2022-09-14T19:18:40.542Z,15.94
2022-09-14T19:21:14.342Z,15.95
2022-09-14T19:23:42.958Z,15.93
2022-09-14T19:26:15.059Z,15.96
2022-09-14T19:28:43.312Z,15.96
2022-09-14T19:31:22.849Z,15.90
2022-09-14T19:33:51.196Z,15.88
2022-09-14T19:36:20.930Z,15.90
2022-09-14T19:38:49.739Z,15.90
2022-09-14T19:41:17.994Z,15.86
2022-09-14T19:43:46.227Z,15.86
2022-09-14T19:46:17.181Z,15.84
2022-09-14T19:48:45.657Z,15.81
2022-09-14T19:51:15.423Z,15.81
2022-09-14T19:53:44.090Z,15.79
2022-09-14T19:56:14.063Z,15.78
2022-09-14T19:58:43.807Z,15.75
2022-09-14T20:01:12.265Z,15.73
2022-09-14T20:03:41.640Z,15.70
2022-09-14T20:06:11.352Z,15.68
2022-09-14T20:08:39.472Z,15.68
2022-09-14T20:11:08.394Z,15.65
2022-09-14T20:13:36.665Z,15.61
2022-09-14T20:16:12.523Z,15.58
2022-09-14T20:18:42.414Z,15.58
2022-09-14T20:21:11.806Z,15.57
2022-09-14T20:24:11.366Z,15.53
2022-09-14T20:26:35.550Z,15.50
2022-09-14T20:29:03.491Z,15.47
2022-09-14T20:31:32.245Z,15.39
2022-09-14T20:34:01.974Z,15.39
2022-09-14T20:36:31.115Z,15.39
2022-09-14T20:39:00.206Z,15.38
2022-09-14T20:41:30.187Z,15.37
2022-09-14T20:43:58.238Z,15.34
2022-09-14T20:46:27.714Z,15.32
2022-09-14T20:48:55.948Z,15.31
2022-09-14T20:51:26.558Z,15.26
2022-09-14T20:53:56.105Z,15.18
2022-09-14T20:56:26.262Z,15.19
2022-09-14T20:58:55.615Z,15.20
2022-09-14T21:01:25.498Z,15.21
2022-09-14T21:03:53.541Z,15.21
2022-09-14T21:06:26.347Z,15.22
2022-09-14T21:08:54.221Z,15.25
2022-09-14T21:11:23.916Z,15.27
2022-09-14T21:13:53.102Z,15.30
2022-09-14T21:16:24.598Z,15.31
2022-09-14T21:18:55.427Z,15.32
2022-09-14T21:21:23.591Z,15.31
2022-09-14T21:23:54.061Z,15.32
2022-09-14T21:26:21.734Z,15.30
2022-09-14T21:28:49.532Z,15.30
2022-09-14T21:31:19.287Z,15.30
2022-09-14T21:33:48.975Z,15.30
2022-09-14T21:36:18.718Z,15.33
2022-09-14T21:38:50.522Z,15.34
2022-09-14T21:41:21.084Z,15.33
2022-09-14T21:43:49.048Z,15.34
2022-09-14T21:46:17.469Z,15.34
2022-09-14T21:48:45.672Z,15.35
2022-09-14T21:51:18.070Z,15.35
2022-09-14T21:53:46.464Z,15.34
2022-09-14T21:56:14.636Z,15.32
2022-09-14T21:58:44.116Z,15.31
2022-09-14T22:01:12.194Z,15.28
2022-09-14T22:03:40.330Z,15.24
2022-09-14T22:06:11.138Z,15.24
2022-09-14T22:08:38.890Z,15.19
2022-09-14T22:11:07.895Z,15.16
2022-09-14T22:13:35.654Z,15.13
2022-09-14T22:16:09.028Z,15.10
2022-09-14T22:18:37.808Z,15.05
2022-09-14T22:21:06.276Z,15.02
2022-09-14T22:23:35.002Z,15.00
2022-09-14T22:26:07.238Z,15.00
2022-09-14T22:28:35.019Z,14.96
2022-09-14T22:31:03.054Z,14.95
2022-09-14T22:33:32.216Z,14.94
2022-09-14T22:36:02.039Z,14.95
2022-09-14T22:38:32.860Z,14.95
2022-09-14T22:41:02.366Z,14.98
2022-09-14T22:43:30.770Z,14.95
2022-09-14T22:45:59.150Z,14.97
2022-09-14T22:48:27.458Z,15.00
2022-09-14T22:50:58.072Z,15.02
2022-09-14T22:53:26.919Z,15.06
2022-09-14T22:55:55.004Z,15.10
2022-09-14T22:58:25.101Z,15.11
2022-09-14T23:00:53.492Z,15.15
2022-09-14T23:03:21.571Z,15.16
2022-09-14T23:05:50.833Z,15.15
2022-09-14T23:08:20.579Z,15.17
2022-09-14T23:10:48.800Z,15.18
2022-09-14T23:13:17.127Z,15.18
2022-09-14T23:15:44.958Z,15.17
2022-09-14T23:18:13.460Z,15.15
2022-09-14T23:20:42.887Z,15.14
2022-09-14T23:23:10.985Z,15.13
2022-09-14T23:25:41.618Z,15.10
2022-09-14T23:28:12.588Z,15.10
2022-09-14T23:30:40.491Z,15.10
2022-09-14T23:33:08.201Z,15.06
2022-09-14T23:35:37.897Z,15.02
2022-09-14T23:38:05.727Z,15.01
2022-09-14T23:40:33.473Z,15.01
2022-09-14T23:43:02.587Z,15.02
2022-09-14T23:45:30.232Z,15.02
2022-09-14T23:47:57.982Z,15.04
2022-09-14T23:50:25.734Z,15.05
2022-09-14T23:52:57.314Z,15.08
2022-09-14T23:55:25.093Z,15.09
2022-09-14T23:57:52.779Z,15.11
